• Join FlightAware (Why Join?)
  • Login
  • US Flag 
03:25AM EDT


 

Airport Tracker/Info


-or-


 

Live Flight TrackerFlight Track Log ✈ FDX1347 ✈ 16-May-2013 ✈ KALB - KMEM

Flight Track Log - Related Links

Times and Time Zones

All times are in EDT time to prevent confusion due to time zone crossing. See the FDX1347 flight status page for this flight to view local times or setup timezone preferences in your user account.

Time Position Orientation Groundspeed Altitude Reporting Facility
EDT Latitude Longitude Course Direction KTS MPH feet Rate Location/Type
09:52PM 42.7503 -73.8283 223° Southwest 167 192 1,600  Level Boston Center
09:53PM 42.7475 -73.8906 267° West 188 216 3,500 2,280 Climbing Boston Center
09:54PM 42.7483 -73.9894 271° West 229 264 6,500 2,760 Climbing Boston Center
09:55PM 42.7469 -74.0828 269° West 236 272 9,700 2,160 Climbing Boston Center
09:56PM 42.7456 -74.1761 269° West 255 293 10,900 1,620 Climbing Boston Center
09:57PM 42.7394 -74.3117 267° West 315 362 13,000 2,220 Climbing Boston Center
09:58PM 42.5315 -74.5482 223° Southwest  Level FlightAware Approximate
09:58PM 42.6711 -74.3969 223° Southwest 343 395 15,400  Level Boston Center
09:59PM 42.5797 -74.4983 219° Southwest 371 427 17,900 1,980 Climbing Boston Center
10:05PM 42.1560 -75.1330 219° Southwest 428 493 28,600 1,920 Climbing FlightAware
10:06PM 42.1220 -75.2130 240° Southwest 416 479 30,100 2,220 Climbing FlightAware
10:06PM 42.0730 -75.3230 239° Southwest 407 468 31,800 1,260 Climbing FlightAware
10:07PM 42.0240 -75.4360 240° Southwest 408 470 32,400 960 Climbing FlightAware
10:08PM 41.9670 -75.5640 239° Southwest 407 468 33,700 2,100 Climbing FlightAware
10:10PM 41.9000 -75.7220 240° Southwest 384 442 37,000 1,800 Climbing FlightAware
10:11PM 41.8401 -75.8582 239° Southwest 387 445 37,800 600 Climbing FlightAware ADS-B
10:11PM 41.8123 -75.9204 239° Southwest 391 450 38,000 180 Climbing FlightAware ADS-B
10:12PM 41.7844 -75.9828 239° Southwest 391 450 38,000  Level FlightAware ADS-B
10:12PM 41.7551 -76.0492 239° Southwest 390 449 38,000  Level FlightAware ADS-B
10:13PM 41.7259 -76.1152 239° Southwest 388 447 38,000  Level FlightAware ADS-B
10:13PM 41.6937 -76.1876 239° Southwest 388 447 38,000  Level FlightAware ADS-B
10:14PM 41.6645 -76.2535 239° Southwest 388 447 38,000  Level FlightAware ADS-B
10:14PM 41.6357 -76.3174 239° Southwest 388 447 38,000  Level FlightAware ADS-B
10:15PM 41.6066 -76.3831 239° Southwest 387 445 38,000  Level FlightAware ADS-B
10:15PM 41.5771 -76.4485 239° Southwest 387 445 38,000  Level FlightAware ADS-B
10:16PM 41.5482 -76.5119 239° Southwest 388 447 38,000  Level FlightAware ADS-B
10:16PM 41.5185 -76.5780 239° Southwest 392 451 38,000  Level FlightAware ADS-B
10:17PM 41.4901 -76.6422 239° Southwest 394 453 38,000  Level FlightAware ADS-B
10:17PM 41.4612 -76.7049 238° Southwest 397 457 38,000  Level FlightAware ADS-B
10:18PM 41.4323 -76.7698 239° Southwest 397 457 38,000  Level FlightAware ADS-B
10:18PM 41.4023 -76.8347 238° Southwest 398 458 38,000  Level FlightAware ADS-B
10:19PM 41.3725 -76.8997 239° Southwest 400 460 38,000  Level FlightAware ADS-B
10:20PM 41.3429 -76.9649 239° Southwest 401 461 38,000  Level FlightAware ADS-B
10:20PM 41.3131 -77.0302 239° Southwest 401 461 38,000  Level FlightAware ADS-B
10:21PM 41.2824 -77.0979 239° Southwest 404 465 38,000  Level FlightAware ADS-B
10:21PM 41.2511 -77.1658 239° Southwest 405 466 38,000  Level FlightAware ADS-B
10:22PM 41.2170 -77.2379 238° Southwest 406 467 38,000  Level FlightAware ADS-B
10:22PM 41.1776 -77.3251 239° Southwest 407 468 38,000  Level FlightAware ADS-B
10:23PM 41.1466 -77.3911 238° Southwest 409 471 38,000  Level FlightAware ADS-B
10:23PM 41.1161 -77.4575 239° Southwest 411 473 38,000  Level FlightAware ADS-B
10:24PM 41.0791 -77.5369 238° Southwest 413 475 38,000  Level FlightAware ADS-B
10:25PM 41.0359 -77.6295 238° Southwest 414 476 38,000  Level FlightAware ADS-B
10:26PM 40.9840 -77.7390 238° Southwest 414 476 38,000  Level FlightAware
10:26PM 40.9460 -77.8210 238° Southwest 415 478 38,000  Level FlightAware
10:27PM 40.8892 -77.9381 238° Southwest 420 483 38,000  Level Cleveland Center
10:28PM 40.8275 -78.0667 238° Southwest 420 483 38,000  Level Cleveland Center
10:29PM 40.7656 -78.1981 238° Southwest 420 483 38,000  Level Cleveland Center
10:30PM 40.7036 -78.3289 238° Southwest 420 483 38,000  Level Cleveland Center
10:36PM 40.2430 -78.9850 238° Southwest 436 502 38,000  Level FlightAware
10:37PM 40.1790 -79.0490 217° Southwest 436 502 38,000  Level FlightAware
10:37PM 40.1060 -79.1250 219° Southwest 435 501 38,000  Level FlightAware
10:38PM 40.0450 -79.1940 221° Southwest 429 494 38,000  Level FlightAware
10:39PM 40.0000 -79.2770 235° Southwest 421 484 38,000  Level FlightAware
10:39PM 39.9570 -79.3700 239° Southwest 419 482 38,000  Level FlightAware
10:40PM 39.9100 -79.4710 239° Southwest 416 479 38,000  Level FlightAware
10:41PM 39.8710 -79.5550 239° Southwest 414 476 38,000  Level FlightAware
10:41PM 39.8300 -79.6420 238° Southwest 413 475 38,000  Level FlightAware
10:42PM 39.7880 -79.7330 239° Southwest 412 474 38,000  Level FlightAware
10:43PM 39.7470 -79.8200 239° Southwest 413 475 38,000  Level FlightAware
10:44PM 39.7010 -79.9180 239° Southwest 414 476 38,000  Level FlightAware
10:44PM 39.6610 -80.0000 238° Southwest 414 476 38,000  Level FlightAware
10:45PM 39.6240 -80.0810 239° Southwest 416 479 38,000  Level FlightAware
10:46PM 39.5900 -80.1510 238° Southwest 417 480 38,000  Level FlightAware
10:46PM 39.5390 -80.2600 239° Southwest 418 481 38,000  Level FlightAware
10:47PM 39.4960 -80.3500 238° Southwest 420 483 38,000  Level FlightAware
10:48PM 39.4510 -80.4420 238° Southwest 421 484 38,000  Level FlightAware
10:48PM 39.4100 -80.5300 239° Southwest 422 486 38,000  Level FlightAware
10:49PM 39.3630 -80.6260 238° Southwest 423 487 38,000  Level FlightAware
10:50PM 39.3210 -80.7120 238° Southwest 424 488 38,000  Level FlightAware
10:51PM 39.2750 -80.8090 239° Southwest 424 488 38,000  Level FlightAware
10:51PM 39.2350 -80.8900 237° Southwest 424 488 38,000  Level FlightAware
10:52PM 39.1910 -80.9800 238° Southwest 425 489 38,000  Level FlightAware
10:53PM 39.1510 -81.0640 238° Southwest 425 489 38,000  Level FlightAware
10:53PM 39.1000 -81.1670 237° Southwest 426 490 38,000  Level FlightAware
10:54PM 39.0580 -81.2530 238° Southwest 427 491 38,000  Level FlightAware
10:55PM 39.0100 -81.3500 238° Southwest 429 494 38,000  Level FlightAware
10:56PM 38.9630 -81.4470 238° Southwest 429 494 38,000  Level FlightAware
10:56PM 38.9210 -81.5310 237° Southwest 430 495 38,000  Level FlightAware
10:57PM 38.8770 -81.6190 237° Southwest 431 496 38,000  Level FlightAware
10:58PM 38.8280 -81.7180 238° Southwest 430 495 38,000  Level FlightAware
10:58PM 38.7860 -81.8020 237° Southwest 430 495 38,000  Level FlightAware
10:59PM 38.7380 -81.8970 237° Southwest 433 498 38,000  Level FlightAware
11:00PM 38.6940 -81.9830 237° Southwest 433 498 38,000  Level FlightAware
11:00PM 38.6500 -82.0720 238° Southwest 436 502 38,000  Level FlightAware
11:01PM 38.6000 -82.1710 237° Southwest 437 503 38,000  Level FlightAware
11:02PM 38.5560 -82.2550 236° Southwest 437 503 38,000  Level FlightAware
11:03PM 38.5070 -82.3530 237° Southwest 438 504 38,000  Level FlightAware
11:03PM 38.4622 -82.4397 237° Southwest 439 505 38,000  Level FlightAware ADS-B
11:04PM 38.4278 -82.5068 237° Southwest 440 506 38,000  Level FlightAware ADS-B
11:04PM 38.3779 -82.6043 237° Southwest 440 506 38,000  Level FlightAware ADS-B
11:05PM 38.3220 -82.7100 236° Southwest 440 506 38,000  Level FlightAware
11:06PM 38.2730 -82.8060 237° Southwest 440 506 38,000  Level FlightAware
11:07PM 38.2280 -82.8920 236° Southwest 440 506 38,000  Level FlightAware
11:07PM 38.1880 -82.9700 237° Southwest 440 506 38,000  Level FlightAware
11:08PM 38.1310 -83.0790 236° Southwest 440 506 38,000  Level FlightAware
11:08PM 38.1204 -83.0991 236° Southwest 441 507 38,000  Level FlightAware ADS-B
11:09PM 38.0480 -83.2350 236° Southwest 439 505 38,000  Level FlightAware
11:10PM 38.0100 -83.3080 237° Southwest 439 505 38,000  Level FlightAware
11:11PM 37.9623 -83.3988 236° Southwest 438 504 38,000  Level FlightAware ADS-B
11:11PM 37.9277 -83.4651 237° Southwest 438 504 38,000  Level FlightAware ADS-B
11:12PM 37.8690 -83.5760 236° Southwest 438 504 38,000  Level FlightAware
11:13PM 37.7890 -83.7240 236° Southwest 440 506 38,000  Level FlightAware
11:14PM 37.7270 -83.8420 236° Southwest 440 506 38,000  Level FlightAware
11:14PM 37.7037 -83.8846 235° Southwest 442 509 38,000  Level FlightAware ADS-B
11:15PM 37.6520 -83.9790 235° Southwest 442 509 38,000  Level FlightAware
11:16PM 37.5920 -84.0920 236° Southwest 443 510 38,000  Level FlightAware
11:17PM 37.5470 -84.1750 236° Southwest 443 510 38,000  Level FlightAware
11:17PM 37.4990 -84.2620 235° Southwest 443 510 38,000  Level FlightAware
11:18PM 37.4590 -84.3340 235° Southwest 443 510 38,000  Level FlightAware
11:18PM 37.4397 -84.3728 238° Southwest 442 509 38,000  Level FlightAware ADS-B
11:19PM 37.4042 -84.4385 236° Southwest 441 507 38,000  Level FlightAware ADS-B
11:19PM 37.3688 -84.5039 236° Southwest 440 506 38,000  Level FlightAware ADS-B
11:20PM 37.3342 -84.5670 235° Southwest 439 505 38,000  Level FlightAware ADS-B
11:20PM 37.2995 -84.6297 235° Southwest 438 504 38,000  Level FlightAware ADS-B
11:21PM 37.2634 -84.6944 235° Southwest 437 503 38,000  Level FlightAware ADS-B
11:21PM 37.2289 -84.7569 235° Southwest 437 503 38,000  Level FlightAware ADS-B
11:22PM 37.1937 -84.8215 236° Southwest 437 503 38,000  Level FlightAware ADS-B
11:22PM 37.1562 -84.8903 236° Southwest 438 504 38,000  Level FlightAware ADS-B
11:23PM 37.1204 -84.9551 235° Southwest 438 504 38,000  Level FlightAware ADS-B
11:23PM 37.0854 -85.0175 235° Southwest 438 504 38,000  Level FlightAware ADS-B
11:24PM 37.0482 -85.0841 235° Southwest 439 505 38,000  Level FlightAware ADS-B
11:24PM 37.0130 -85.1469 235° Southwest 441 507 38,000  Level FlightAware ADS-B
11:25PM 36.9702 -85.2242 235° Southwest 441 507 38,000  Level FlightAware ADS-B
11:26PM 36.9181 -85.3164 235° Southwest 442 509 38,000  Level FlightAware ADS-B
11:26PM 36.8725 -85.3978 235° Southwest 442 509 38,000  Level FlightAware ADS-B
11:27PM 36.8350 -85.4670 236° Southwest 440 506 38,000  Level FlightAware
11:27PM 36.8231 -85.4874 234° Southwest 441 507 38,000  Level FlightAware ADS-B
11:28PM 36.7910 -85.5440 235° Southwest 440 506 38,000  Level FlightAware
11:28PM 36.7718 -85.5767 234° Southwest 440 506 38,000  Level FlightAware ADS-B
11:28PM 36.7348 -85.6432 235° Southwest 440 506 38,000  Level FlightAware ADS-B
11:29PM 36.6987 -85.7074 235° Southwest 440 506 38,000  Level FlightAware ADS-B
11:29PM 36.6624 -85.7715 235° Southwest 439 505 38,000  Level FlightAware ADS-B
11:30PM 36.6261 -85.8353 235° Southwest 438 504 38,000  Level FlightAware ADS-B
11:30PM 36.5920 -85.8950 235° Southwest 38,000  Level FlightAware
11:31PM 36.5786 -85.9174 233° Southwest 437 503 38,000  Level FlightAware ADS-B
11:31PM 36.5390 -85.9870 235° Southwest 437 503 38,000  Level FlightAware
11:32PM 36.4930 -86.0690 235° Southwest 437 503 38,000  Level FlightAware
11:32PM 36.4426 -86.1553 234° Southwest 438 504 38,000  Level FlightAware ADS-B
11:33PM 36.4035 -86.2229 234° Southwest 440 506 38,000  Level FlightAware ADS-B
11:34PM 36.3658 -86.2886 235° Southwest 440 506 38,000  Level FlightAware ADS-B
11:34PM 36.3300 -86.3503 234° Southwest 441 507 38,000  Level FlightAware ADS-B
11:35PM 36.2923 -86.4161 235° Southwest 442 509 38,000  Level FlightAware ADS-B
11:35PM 36.2536 -86.4839 235° Southwest 440 506 38,000  Level FlightAware ADS-B
11:36PM 36.2155 -86.5494 234° Southwest 439 505 38,000  Level FlightAware ADS-B
11:36PM 36.1797 -86.6105 234° Southwest 439 505 38,000  Level FlightAware ADS-B
11:37PM 36.1440 -86.6770 236° Southwest 439 505 38,000  Level FlightAware
11:37PM 36.1184 -86.7402 243° Southwest 439 505 38,000  Level FlightAware ADS-B
11:37PM 36.1161 -86.7471 248° West 439 505 38,000  Level FlightAware ADS-B
11:38PM 36.0924 -86.8220 249° West 438 504 38,000  Level FlightAware ADS-B
11:38PM 36.0678 -86.9012 249° West 438 504 38,000  Level FlightAware ADS-B
11:39PM 36.0453 -86.9734 249° West 438 504 38,000  Level FlightAware ADS-B
11:39PM 36.0228 -87.0431 248° West 438 504 38,000  Level FlightAware ADS-B
11:40PM 36.0000 -87.1149 249° West 437 503 38,000 -1,080 Level FlightAware ADS-B
11:41PM 35.9682 -87.2136 248° West 434 499 36,700 -1,980 Descending FlightAware ADS-B
11:41PM 35.9455 -87.2823 248° West 432 497 35,600 -1,440 Descending FlightAware ADS-B
11:42PM 35.9220 -87.3560 249° West 429 494 35,100 -480 Descending FlightAware
11:42PM 35.8930 -87.4440 248° West 434 499 35,000 -120 Descending FlightAware
11:43PM 35.8590 -87.5510 249° West 440 506 35,000  Level FlightAware
11:44PM 35.8300 -87.6370 247° West 440 506 35,000  Level FlightAware
11:44PM 35.8040 -87.7160 248° West 440 506 35,000  Level FlightAware
11:45PM 35.7780 -87.7960 248° West 440 506 35,000  Level FlightAware
11:46PM 35.7460 -87.8940 248° West 440 506 35,000  Level FlightAware
11:47PM 35.7200 -87.9740 248° West 440 506 35,000  Level FlightAware
11:47PM 35.6940 -88.0530 248° West 440 506 35,000  Level FlightAware
11:48PM 35.6680 -88.1320 248° West 440 506 35,000  Level FlightAware
11:49PM 35.6420 -88.2110 248° West 440 506 35,000  Level FlightAware
11:49PM 35.6160 -88.2890 248° West 440 506 35,000  Level FlightAware
11:50PM 35.5840 -88.3880 248° West 440 506 35,000  Level FlightAware
11:51PM 35.5580 -88.4670 248° West 440 506 35,000  Level FlightAware
11:51PM 35.5320 -88.5460 248° West 440 506 35,000  Level FlightAware
11:52PM 35.5060 -88.6250 248° West 440 506 35,000  Level FlightAware
11:53PM 35.4740 -88.7230 248° West 440 506 35,000 -15,540 Level FlightAware
11:53PM 35.2622 -88.7806 248° West 371 427 14,600 -15,120 Descending Memphis Center
11:54PM 35.1964 -88.8631 226° Southwest 359 413 12,600 -1,980 Descending Memphis Center
11:55PM 35.1328 -88.9428 226° Southwest 343 395 10,700 -1,260 Descending Memphis Center
11:56PM 35.0731 -89.0200 227° Southwest 319 367 10,100 -900 Descending Memphis Center
11:57PM 35.0342 -89.0892 236° Southwest 283 326 8,900 -1,320 Descending Memphis Center
11:58PM 35.0372 -89.1803 272° West 265 305 7,600 -1,260 Descending Memphis Center
11:59PM 35.0400 -89.2692 272° West 265 305 6,400 -900 Descending Memphis Center
12:00AM 35.0428 -89.3475 273° West 253 291 5,900 -540 Descending Memphis Center
12:01AM 35.0433 -89.4236 271° West 229 264 5,400 -420 Descending Memphis Center
12:02AM 35.0439 -89.4947 271° West 229 264 5,100 -240 Descending Memphis Center
12:03AM 35.0486 -89.5581 275° West 217 250 5,000 -240 Descending Memphis Center
12:04AM 35.0489 -89.6214 270° West 195 224 4,700 -600 Descending Memphis Center
12:05AM 35.0533 -89.6797 275° West 183 211 3,900 -900 Descending Memphis Center
12:06AM 35.0536 -89.7331 270° West 167 192 3,000 -480 Descending Memphis Center
12:07AM 35.0539 -89.7864 270° West 161 185 3,000 -420 Level Memphis Center
12:08AM 35.0564 -89.8369 273° West 161 185 2,200 -780 Descending Memphis Center
12:09AM 35.0586 -89.8853 273° West 154 177 1,500 -780 Descending Memphis Center
12:11AM 35.0500 -89.9333 258° West 140 161 500 -840 Descending KMEM
12:13AM 35.0333 -89.9667 270° West  Level FlightAware Approximate
12:20AM 35.0424 -89.9767 270° West  Level Estimated
12:21AM 35.0424 -89.9767 270° West  Level Estimated
12:22AM 35.0424 -89.9767 270° West  Level Estimated
12:23AM 35.0424 -89.9767 270° West  Level Estimated
12:24AM 35.0424 -89.9767 270° West  Level Estimated
12:25AM 35.0424 -89.9767 270° West  Level Estimated